createdAt,value
2023-04-11T00:00:42.494Z,4.90
2023-04-11T00:03:11.935Z,2.38
2023-04-11T00:05:39.937Z,2.72
2023-04-11T00:08:08.068Z,2.38
2023-04-11T00:10:36.076Z,4.00
2023-04-11T00:13:04.452Z,3.67
2023-04-11T00:15:32.580Z,3.75
2023-04-11T00:18:00.599Z,4.25
2023-04-11T00:20:30.005Z,2.92
2023-04-11T00:22:58.395Z,3.42
2023-04-11T00:25:27.065Z,3.80
2023-04-11T00:27:55.410Z,2.25
2023-04-11T00:30:23.692Z,4.55
2023-04-11T00:32:51.680Z,6.15
2023-04-11T00:35:19.659Z,4.28
2023-04-11T00:37:54.151Z,2.17
2023-04-11T00:40:22.157Z,5.28
2023-04-11T00:42:50.111Z,2.40
2023-04-11T00:45:18.120Z,2.72
2023-04-11T00:47:46.332Z,4.63
2023-04-11T00:50:15.849Z,3.03
2023-04-11T00:52:49.434Z,3.83
2023-04-11T00:55:17.713Z,3.15
2023-04-11T00:57:46.359Z,3.08
2023-04-11T01:00:15.366Z,3.42
2023-04-11T01:02:45.185Z,2.00
2023-04-11T01:05:14.828Z,4.50
2023-04-11T01:07:46.501Z,3.00
2023-04-11T01:10:16.913Z,6.00
2023-04-11T01:12:46.750Z,2.47
2023-04-11T01:15:14.732Z,2.38
2023-04-11T01:17:42.797Z,6.25
2023-04-11T01:20:11.818Z,2.85
2023-04-11T01:22:41.572Z,4.65
2023-04-11T01:25:12.015Z,3.40
2023-04-11T01:27:40.029Z,3.20
2023-04-11T01:30:09.399Z,5.07
2023-04-11T01:32:37.412Z,3.35
2023-04-11T01:35:06.229Z,1.98
2023-04-11T01:37:34.357Z,3.78
2023-04-11T01:40:02.803Z,4.28
2023-04-11T01:42:33.666Z,2.55
2023-04-11T01:45:02.602Z,3.00
2023-04-11T01:47:30.608Z,4.05
2023-04-11T01:49:58.579Z,3.25
2023-04-11T01:52:26.606Z,5.32
2023-04-11T01:54:54.597Z,4.57
2023-04-11T01:57:22.534Z,3.38
2023-04-11T01:59:51.928Z,3.50
2023-04-11T02:02:19.960Z,3.63
2023-04-11T02:04:47.979Z,3.38
2023-04-11T02:07:15.980Z,4.18
2023-04-11T02:09:43.934Z,3.25
2023-04-11T02:12:12.068Z,2.50
2023-04-11T02:14:44.384Z,2.67
2023-04-11T02:17:14.259Z,2.50
2023-04-11T02:19:45.271Z,2.58
2023-04-11T02:22:13.651Z,2.88
2023-04-11T02:24:42.223Z,3.15
2023-04-11T02:27:12.696Z,3.35
2023-04-11T02:29:40.776Z,4.00
2023-04-11T02:32:08.922Z,5.30
2023-04-11T02:34:38.393Z,5.70
2023-04-11T02:37:06.359Z,3.95
2023-04-11T02:39:34.284Z,2.72
2023-04-11T02:42:02.210Z,3.75
2023-04-11T02:44:30.888Z,3.92
2023-04-11T02:47:00.121Z,3.92
2023-04-11T02:49:28.203Z,3.35
2023-04-11T02:51:57.578Z,4.68
2023-04-11T02:54:25.593Z,3.88
2023-04-11T02:56:55.840Z,5.38
2023-04-11T02:59:23.835Z,5.45
2023-04-11T03:01:51.888Z,4.05
2023-04-11T03:04:19.941Z,4.68
2023-04-11T03:06:47.919Z,3.45
2023-04-11T03:09:17.230Z,4.78
2023-04-11T03:11:47.292Z,5.55
2023-04-11T03:14:15.469Z,3.33
2023-04-11T03:16:43.364Z,2.17
2023-04-11T03:19:11.313Z,3.63
2023-04-11T03:21:39.246Z,4.45
2023-04-11T03:24:07.934Z,1.98
2023-04-11T03:26:37.228Z,3.83
2023-04-11T03:29:05.182Z,2.10
2023-04-11T03:31:33.212Z,3.50
2023-04-11T03:34:01.300Z,1.98
2023-04-11T03:36:29.594Z,1.65
2023-04-11T03:38:57.875Z,1.85
2023-04-11T03:41:26.110Z,1.77
2023-04-11T03:43:55.867Z,1.60
2023-04-11T03:46:23.967Z,1.80
2023-04-11T03:48:51.873Z,1.30
2023-04-11T03:51:19.787Z,2.05
2023-04-11T03:53:47.652Z,2.55
2023-04-11T03:56:15.817Z,2.70
2023-04-11T03:58:43.727Z,2.78
2023-04-11T04:01:13.210Z,2.75
2023-04-11T04:03:41.409Z,1.73
2023-04-11T04:06:10.252Z,1.95
2023-04-11T04:08:38.173Z,2.42
2023-04-11T04:11:06.638Z,1.30
2023-04-11T04:13:34.732Z,1.17
2023-04-11T04:16:03.882Z,2.17
2023-04-11T04:18:33.382Z,1.15
2023-04-11T04:21:01.334Z,1.13
2023-04-11T04:23:30.001Z,2.17
2023-04-11T04:26:02.008Z,1.25
2023-04-11T04:28:30.002Z,2.13
2023-04-11T04:30:58.604Z,2.50
2023-04-11T04:33:27.696Z,2.33
2023-04-11T04:35:59.949Z,1.40
2023-04-11T04:38:28.988Z,1.65
2023-04-11T04:40:56.972Z,1.80
2023-04-11T04:43:27.193Z,1.55
2023-04-11T04:45:55.292Z,1.15
2023-04-11T04:48:25.485Z,2.58
2023-04-11T04:50:53.496Z,1.65
2023-04-11T04:53:22.767Z,2.42
2023-04-11T04:55:50.894Z,1.77
2023-04-11T04:58:18.846Z,1.65
2023-04-11T05:00:49.246Z,1.92
2023-04-11T05:03:20.861Z,2.95
2023-04-11T05:05:49.137Z,4.30
2023-04-11T05:08:19.326Z,3.22
2023-04-11T05:10:48.588Z,4.22
2023-04-11T05:13:16.601Z,2.90
2023-04-11T05:15:49.030Z,4.30
2023-04-11T05:18:16.999Z,2.90
2023-04-11T05:20:45.674Z,1.70
2023-04-11T05:23:13.700Z,1.45
2023-04-11T05:25:41.643Z,2.65
2023-04-11T05:28:10.933Z,2.90
2023-04-11T05:30:38.935Z,2.92
2023-04-11T05:33:06.945Z,4.05
2023-04-11T05:35:34.933Z,2.03
2023-04-11T05:38:02.936Z,5.53
2023-04-11T05:40:30.918Z,1.95
2023-04-11T05:42:58.875Z,3.63
2023-04-11T05:45:28.169Z,3.38
2023-04-11T05:47:56.730Z,3.08
2023-04-11T05:50:25.168Z,2.88
2023-04-11T05:52:53.081Z,1.98
2023-04-11T05:55:21.070Z,1.50
2023-04-11T05:57:49.045Z,2.30
2023-04-11T06:00:18.256Z,0.70
2023-04-11T06:02:49.249Z,2.22
2023-04-11T06:05:17.935Z,1.48
2023-04-11T06:07:46.776Z,1.60
2023-04-11T06:10:14.903Z,2.25
2023-04-11T06:12:44.167Z,1.10
2023-04-11T06:15:13.825Z,3.22
2023-04-11T06:17:42.071Z,3.17
2023-04-11T06:20:12.175Z,3.80
2023-04-11T06:22:40.918Z,1.33
2023-04-11T06:25:10.094Z,0.50
2023-04-11T06:27:38.002Z,3.55
2023-04-11T06:30:07.134Z,1.42
2023-04-11T06:32:35.520Z,1.05
2023-04-11T06:35:03.567Z,3.58
2023-04-11T06:37:32.908Z,0.52
2023-04-11T06:40:01.396Z,1.33
2023-04-11T06:42:29.382Z,1.33
2023-04-11T06:44:57.420Z,3.13
2023-04-11T06:47:25.545Z,3.90
2023-04-11T06:49:53.685Z,2.35
2023-04-11T06:52:21.701Z,2.35
2023-04-11T06:54:51.020Z,3.47
2023-04-11T06:57:18.960Z,2.45
2023-04-11T06:59:47.004Z,3.50
2023-04-11T07:02:15.622Z,3.88
2023-04-11T07:04:43.872Z,3.67
2023-04-11T07:07:11.975Z,0.70
2023-04-11T07:09:40.053Z,1.77
2023-04-11T07:12:09.456Z,5.78
2023-04-11T07:14:37.421Z,2.83
2023-04-11T07:17:05.456Z,1.13
2023-04-11T07:19:33.528Z,2.08
2023-04-11T07:22:01.518Z,4.47
2023-04-11T07:24:30.588Z,3.17
2023-04-11T07:27:01.760Z,2.92
2023-04-11T07:29:31.766Z,1.67
2023-04-11T07:31:59.776Z,1.13
2023-04-11T07:34:27.790Z,1.27
2023-04-11T07:37:01.104Z,2.50
2023-04-11T07:39:29.410Z,3.58
2023-04-11T07:41:57.919Z,4.35
2023-04-11T07:44:27.221Z,3.70
2023-04-11T07:46:56.847Z,3.63
2023-04-11T07:49:24.894Z,1.25
2023-04-11T07:51:52.873Z,4.88
2023-04-11T07:54:20.816Z,6.07
2023-04-11T07:56:48.818Z,4.18
2023-04-11T07:59:17.256Z,4.10
2023-04-11T08:01:45.289Z,4.05
2023-04-11T08:04:15.210Z,3.42
2023-04-11T08:06:43.489Z,3.30
2023-04-11T08:09:11.498Z,3.22
2023-04-11T08:11:40.844Z,3.10
2023-04-11T08:14:09.187Z,7.05
2023-04-11T08:16:37.286Z,2.97
2023-04-11T08:19:05.283Z,3.42
2023-04-11T08:21:34.619Z,5.25
2023-04-11T08:24:02.587Z,6.80
2023-04-11T08:26:30.918Z,4.88
2023-04-11T08:28:58.885Z,3.33
2023-04-11T08:31:28.464Z,9.75
2023-04-11T08:33:58.483Z,2.08
2023-04-11T08:36:28.494Z,3.35
2023-04-11T08:39:00.158Z,5.55
2023-04-11T08:41:30.698Z,3.70
2023-04-11T08:43:59.006Z,4.60
2023-04-11T08:46:27.256Z,3.13
2023-04-11T08:48:55.821Z,5.50
2023-04-11T08:51:26.753Z,5.95
2023-04-11T08:53:57.859Z,7.07
2023-04-11T08:56:28.045Z,6.07
2023-04-11T08:58:56.281Z,4.80
2023-04-11T09:01:29.814Z,6.22
2023-04-11T09:03:58.180Z,3.40
2023-04-11T09:06:30.601Z,8.10
2023-04-11T09:08:59.373Z,4.82
2023-04-11T09:11:29.011Z,2.88
2023-04-11T09:14:10.121Z,4.15
2023-04-11T09:16:38.623Z,3.65
2023-04-11T09:19:24.921Z,11.80
2023-04-11T09:21:53.647Z,4.80
2023-04-11T09:24:22.732Z,7.22
2023-04-11T09:26:52.460Z,6.55
2023-04-11T09:29:37.996Z,5.20
2023-04-11T09:32:06.289Z,6.25
2023-04-11T09:34:37.489Z,7.30
2023-04-11T09:37:06.386Z,6.07
2023-04-11T09:39:34.412Z,6.97
2023-04-11T09:42:23.787Z,8.52
2023-04-11T09:44:52.053Z,4.47
2023-04-11T09:47:20.076Z,7.78
2023-04-11T09:49:48.432Z,5.50
2023-04-11T09:52:17.239Z,8.00
2023-04-11T09:54:46.346Z,7.28
2023-04-11T09:57:16.148Z,6.70
2023-04-11T09:59:45.388Z,8.05
2023-04-11T10:02:13.669Z,7.97
2023-04-11T10:04:41.795Z,6.13
2023-04-11T10:07:14.354Z,10.18
2023-04-11T10:09:43.979Z,5.88
2023-04-11T10:12:12.251Z,8.00
2023-04-11T10:14:47.730Z,7.50
2023-04-11T10:17:20.700Z,8.02
2023-04-11T10:19:51.584Z,4.53
2023-04-11T10:22:57.009Z,6.30
2023-04-11T10:25:25.334Z,3.63
2023-04-11T10:27:54.703Z,3.90
2023-04-11T10:30:55.861Z,6.45
2023-04-11T10:33:26.858Z,7.18
2023-04-11T10:35:58.822Z,6.32
2023-04-11T10:38:49.747Z,6.03
2023-04-11T10:41:35.591Z,7.45
2023-04-11T10:44:18.347Z,4.05
2023-04-11T10:46:48.830Z,4.07
2023-04-11T10:49:38.635Z,4.72
2023-04-11T10:52:20.988Z,3.20
2023-04-11T10:54:49.102Z,3.22
2023-04-11T10:57:17.550Z,4.10
2023-04-11T11:00:01.927Z,4.20
2023-04-11T11:02:40.252Z,6.13
2023-04-11T11:05:23.618Z,2.95
2023-04-11T11:07:55.768Z,4.10
2023-04-11T11:10:40.784Z,4.45
2023-04-11T11:13:09.353Z,3.65
2023-04-11T11:15:38.504Z,3.17
2023-04-11T11:18:08.173Z,3.25
2023-04-11T11:20:38.491Z,3.10
2023-04-11T11:23:08.312Z,12.48
2023-04-11T11:25:36.457Z,7.90
2023-04-11T11:28:06.294Z,9.15
2023-04-11T11:30:35.131Z,8.80
2023-04-11T11:33:17.894Z,9.15
2023-04-11T11:35:53.490Z,8.90
2023-04-11T11:38:22.356Z,5.65
2023-04-11T11:40:50.751Z,8.45
2023-04-11T11:43:19.186Z,11.57
2023-04-11T11:45:48.062Z,7.20
2023-04-11T11:48:23.404Z,10.93
2023-04-11T11:50:58.065Z,9.23
2023-04-11T11:53:26.783Z,5.78
2023-04-11T11:55:56.773Z,4.93
2023-04-11T11:58:24.956Z,3.25
2023-04-11T12:00:53.534Z,8.98
2023-04-11T12:03:23.530Z,6.80
2023-04-11T12:05:52.954Z,13.93
2023-04-11T12:08:23.140Z,8.05
2023-04-11T12:10:52.221Z,6.50
2023-04-11T12:13:22.566Z,5.03
2023-04-11T12:15:52.642Z,2.97
2023-04-11T12:18:24.759Z,4.75
2023-04-11T12:20:53.502Z,5.85
2023-04-11T12:23:23.952Z,5.65
2023-04-11T12:25:51.992Z,5.15
2023-04-11T12:28:20.096Z,4.40
2023-04-11T12:30:47.998Z,7.78
2023-04-11T12:33:16.312Z,4.82
2023-04-11T12:35:44.276Z,5.50
2023-04-11T12:38:14.958Z,5.80
2023-04-11T12:40:47.301Z,6.70
2023-04-11T12:43:15.516Z,3.67
2023-04-11T12:45:43.464Z,5.20
2023-04-11T12:48:11.390Z,4.97
2023-04-11T12:50:39.365Z,5.95
2023-04-11T12:53:07.334Z,4.00
2023-04-11T12:55:35.451Z,7.18
2023-04-11T12:58:04.932Z,5.65
2023-04-11T13:00:32.951Z,3.78
2023-04-11T13:03:01.101Z,3.13
2023-04-11T13:05:29.401Z,7.28
2023-04-11T13:07:57.402Z,6.93
2023-04-11T13:10:26.488Z,5.55
2023-04-11T13:12:58.461Z,5.55
2023-04-11T13:15:28.332Z,4.05
2023-04-11T13:17:56.366Z,4.00
2023-04-11T13:20:24.284Z,4.18
2023-04-11T13:22:52.192Z,5.07
2023-04-11T13:25:20.370Z,4.82
2023-04-11T13:27:48.354Z,4.30
2023-04-11T13:30:16.492Z,4.50
2023-04-11T13:32:45.846Z,2.47
2023-04-11T13:35:13.801Z,6.40
2023-04-11T13:37:42.060Z,2.58
2023-04-11T13:40:12.362Z,4.60
2023-04-11T13:42:40.384Z,3.22
2023-04-11T13:45:10.091Z,4.57
2023-04-11T13:47:38.949Z,4.15
2023-04-11T13:50:09.983Z,3.42
2023-04-11T13:52:37.970Z,3.78
2023-04-11T13:55:06.783Z,5.45
2023-04-11T13:57:34.790Z,3.10
2023-04-11T14:00:06.679Z,4.13
2023-04-11T14:02:34.813Z,2.08
2023-04-11T14:05:02.901Z,3.85
2023-04-11T14:07:32.246Z,3.83
2023-04-11T14:10:00.276Z,5.50
2023-04-11T14:12:28.358Z,4.55
2023-04-11T14:14:56.264Z,4.85
2023-04-11T14:17:24.304Z,4.28
2023-04-11T14:19:52.456Z,5.43
2023-04-11T14:22:20.600Z,6.38
2023-04-11T14:24:49.979Z,2.97
2023-04-11T14:27:18.039Z,3.67
2023-04-11T14:29:47.294Z,9.20
2023-04-11T14:32:15.260Z,3.80
2023-04-11T14:34:43.228Z,5.85
2023-04-11T14:37:11.247Z,3.95
2023-04-11T14:39:40.015Z,3.85
2023-04-11T14:42:09.854Z,5.57
2023-04-11T14:44:39.233Z,40.63
2023-04-11T14:47:07.282Z,5.43
2023-04-11T14:49:35.257Z,2.47
2023-04-11T14:52:03.248Z,5.72
2023-04-11T14:54:31.341Z,4.10
2023-04-11T14:56:59.614Z,5.63
2023-04-11T14:59:28.923Z,6.10
2023-04-11T15:01:57.229Z,4.75
2023-04-11T15:04:25.304Z,4.85
2023-04-11T15:06:53.274Z,4.95
2023-04-11T15:09:21.341Z,3.40
2023-04-11T15:11:49.748Z,6.40
2023-04-11T15:14:20.031Z,5.57
2023-04-11T15:16:49.402Z,5.85
2023-04-11T15:19:17.334Z,4.97
2023-04-11T15:21:46.421Z,6.30
2023-04-11T15:24:14.404Z,5.03
2023-04-11T15:26:44.527Z,5.93
2023-04-11T15:29:16.622Z,6.00
2023-04-11T15:31:44.617Z,5.05
2023-04-11T15:34:16.792Z,3.80
2023-04-11T15:36:45.346Z,6.45
2023-04-11T15:39:13.293Z,6.70
2023-04-11T15:41:41.404Z,3.65
2023-04-11T15:44:09.615Z,9.18
2023-04-11T15:46:37.597Z,4.68
2023-04-11T15:49:05.508Z,3.55
2023-04-11T15:51:34.847Z,3.47
2023-04-11T15:54:04.831Z,6.85
2023-04-11T15:56:33.549Z,3.47
2023-04-11T15:59:01.490Z,6.47
2023-04-11T16:01:29.981Z,4.80
2023-04-11T16:03:58.280Z,6.03
2023-04-11T16:06:27.282Z,6.05
2023-04-11T16:08:56.742Z,4.20
2023-04-11T16:11:24.681Z,5.10
2023-04-11T16:13:52.692Z,4.32
2023-04-11T16:16:20.789Z,6.32
2023-04-11T16:18:48.770Z,5.78
2023-04-11T16:21:17.061Z,4.13
2023-04-11T16:23:45.029Z,9.05
2023-04-11T16:26:14.315Z,9.13
2023-04-11T16:28:42.231Z,8.68
2023-04-11T16:31:10.186Z,10.60
2023-04-11T16:33:38.129Z,9.45
2023-04-11T16:36:06.530Z,4.45
2023-04-11T16:38:34.486Z,6.22
2023-04-11T16:41:03.413Z,6.57
2023-04-11T16:43:32.680Z,7.30
2023-04-11T16:46:00.705Z,7.65
2023-04-11T16:48:30.339Z,5.78
2023-04-11T16:50:58.793Z,7.93
2023-04-11T16:53:26.770Z,7.07
2023-04-11T16:55:55.665Z,7.63
2023-04-11T16:58:23.854Z,9.65
2023-04-11T17:00:53.732Z,6.72
2023-04-11T17:03:21.857Z,4.90
2023-04-11T17:05:50.030Z,6.07
2023-04-11T17:08:18.865Z,6.35
2023-04-11T17:10:46.767Z,6.97
2023-04-11T17:13:16.059Z,6.70
2023-04-11T17:15:44.052Z,5.55
2023-04-11T17:18:14.790Z,6.20
2023-04-11T17:20:43.750Z,5.57
2023-04-11T17:23:12.282Z,7.55
2023-04-11T17:25:40.268Z,7.00
2023-04-11T17:28:08.773Z,5.47
2023-04-11T17:30:36.770Z,5.13
2023-04-11T17:33:04.843Z,6.53
2023-04-11T17:35:34.500Z,5.10
2023-04-11T17:38:02.782Z,8.57
2023-04-11T17:40:30.734Z,3.90
2023-04-11T17:42:58.847Z,6.05
2023-04-11T17:45:27.214Z,9.15
2023-04-11T17:47:55.510Z,7.95
2023-04-11T17:50:23.601Z,7.07
2023-04-11T17:52:52.997Z,7.00
2023-04-11T17:55:21.579Z,5.43
2023-04-11T17:57:49.854Z,7.70
2023-04-11T18:00:22.155Z,5.40
2023-04-11T18:02:52.437Z,6.65
2023-04-11T18:05:24.990Z,4.97
2023-04-11T18:07:56.607Z,5.70
2023-04-11T18:10:25.783Z,5.13
2023-04-11T18:12:54.743Z,6.40
2023-04-11T18:15:23.585Z,6.03
2023-04-11T18:17:52.569Z,7.53
2023-04-11T18:20:20.608Z,10.65
2023-04-11T18:22:51.439Z,13.00
2023-04-11T18:25:21.272Z,7.25
2023-04-11T18:27:49.530Z,8.02
2023-04-11T18:30:18.226Z,7.28
2023-04-11T18:32:49.334Z,5.25
2023-04-11T18:35:18.410Z,9.32
2023-04-11T18:37:46.548Z,6.28
2023-04-11T18:40:15.887Z,7.20
2023-04-11T18:42:48.436Z,7.72
2023-04-11T18:45:17.920Z,9.13
2023-04-11T18:47:46.680Z,5.78
2023-04-11T18:50:15.073Z,7.50
2023-04-11T18:52:44.965Z,5.60
2023-04-11T18:55:13.831Z,7.75
2023-04-11T18:57:43.872Z,5.97
2023-04-11T19:00:18.658Z,6.63
2023-04-11T19:02:50.281Z,5.53
2023-04-11T19:05:19.292Z,4.38
2023-04-11T19:07:47.759Z,5.10
2023-04-11T19:10:15.855Z,6.55
2023-04-11T19:12:43.987Z,6.38
2023-04-11T19:15:14.523Z,4.43
2023-04-11T19:17:42.808Z,4.85
2023-04-11T19:20:13.708Z,5.80
2023-04-11T19:22:41.994Z,4.88
2023-04-11T19:25:11.652Z,4.28
2023-04-11T19:27:41.468Z,6.45
2023-04-11T19:30:13.409Z,8.15
2023-04-11T19:32:45.942Z,5.32
2023-04-11T19:35:14.537Z,6.55
2023-04-11T19:37:42.788Z,6.22
2023-04-11T19:40:13.826Z,5.70
2023-04-11T19:42:42.099Z,4.97
2023-04-11T19:45:11.115Z,7.30
2023-04-11T19:47:40.396Z,7.30
2023-04-11T19:50:13.068Z,32.47
2023-04-11T19:52:41.550Z,34.50
2023-04-11T19:55:10.434Z,64.15
2023-04-11T19:57:40.229Z,37.90
2023-04-11T20:00:12.549Z,15.75
2023-04-11T20:02:44.609Z,7.47
2023-04-11T20:05:15.323Z,20.23
2023-04-11T20:07:43.941Z,83.43
2023-04-11T20:10:12.540Z,150.20
2023-04-11T20:12:40.804Z,172.68
2023-04-11T20:15:10.208Z,86.90
2023-04-11T20:17:38.294Z,118.57
2023-04-11T20:20:08.846Z,63.15
2023-04-11T20:22:39.107Z,88.57
2023-04-11T20:25:11.367Z,125.03
2023-04-11T20:27:39.752Z,40.33
2023-04-11T20:30:10.509Z,15.85
2023-04-11T20:32:38.844Z,15.77
2023-04-11T20:35:08.922Z,27.00
2023-04-11T20:37:38.679Z,13.93
2023-04-11T20:40:10.030Z,47.78
2023-04-11T20:42:40.062Z,23.48
2023-04-11T20:45:10.729Z,12.10
2023-04-11T20:47:39.129Z,22.38
2023-04-11T20:50:08.915Z,9.32
2023-04-11T20:52:41.166Z,6.50
2023-04-11T20:55:10.714Z,5.35
2023-04-11T20:57:38.736Z,16.23
2023-04-11T21:00:13.849Z,20.60
2023-04-11T21:02:44.330Z,26.27
2023-04-11T21:05:13.399Z,27.45
2023-04-11T21:07:43.235Z,18.67
2023-04-11T21:10:12.230Z,12.07
2023-04-11T21:12:40.771Z,15.27
2023-04-11T21:15:10.077Z,12.13
2023-04-11T21:17:39.563Z,7.55
2023-04-11T21:20:10.187Z,8.60
2023-04-11T21:22:40.225Z,5.68
2023-04-11T21:25:10.594Z,5.32
2023-04-11T21:27:38.589Z,4.93
2023-04-11T21:30:07.651Z,5.07
2023-04-11T21:32:38.948Z,5.28
2023-04-11T21:35:08.993Z,6.22
2023-04-11T21:37:37.294Z,6.22
2023-04-11T21:40:06.147Z,10.48
2023-04-11T21:42:35.515Z,6.85
2023-04-11T21:45:03.561Z,9.20
2023-04-11T21:47:31.659Z,4.97
2023-04-11T21:49:59.681Z,3.67
2023-04-11T21:52:27.606Z,4.13
2023-04-11T21:54:55.812Z,5.95
2023-04-11T21:57:23.849Z,3.80
2023-04-11T21:59:53.123Z,3.47
2023-04-11T22:02:21.330Z,3.95
2023-04-11T22:05:04.539Z,4.07
2023-04-11T22:07:38.971Z,4.47
2023-04-11T22:10:10.353Z,7.00
2023-04-11T22:12:39.124Z,4.13
2023-04-11T22:15:12.476Z,5.80
2023-04-11T22:17:41.810Z,2.95
2023-04-11T22:20:11.262Z,4.18
2023-04-11T22:22:39.300Z,6.40
2023-04-11T22:25:09.847Z,5.82
2023-04-11T22:27:38.483Z,3.90
2023-04-11T22:30:09.769Z,2.38
2023-04-11T22:32:38.063Z,6.35
2023-04-11T22:35:08.257Z,4.32
2023-04-11T22:37:36.267Z,4.40
2023-04-11T22:40:06.123Z,8.98
2023-04-11T22:42:34.079Z,12.40
2023-04-11T22:45:02.078Z,8.52
2023-04-11T22:47:34.072Z,6.05
2023-04-11T22:50:03.516Z,7.43
2023-04-11T22:52:31.864Z,5.18
2023-04-11T22:54:59.788Z,6.53
2023-04-11T22:57:27.699Z,5.35
2023-04-11T22:59:55.696Z,6.20
2023-04-11T23:02:25.260Z,6.70
2023-04-11T23:04:54.773Z,3.95
2023-04-11T23:07:25.056Z,4.80
2023-04-11T23:09:53.640Z,5.78
2023-04-11T23:12:21.905Z,4.88
2023-04-11T23:14:50.387Z,3.58
2023-04-11T23:17:18.342Z,4.68
2023-04-11T23:19:47.152Z,4.55
2023-04-11T23:22:16.923Z,3.47
2023-04-11T23:24:45.331Z,5.25
2023-04-11T23:27:13.747Z,9.63
2023-04-11T23:29:41.722Z,6.65
2023-04-11T23:32:09.882Z,7.47
2023-04-11T23:34:37.829Z,7.22
2023-04-11T23:37:05.962Z,5.63
2023-04-11T23:39:35.314Z,7.95
2023-04-11T23:42:03.226Z,7.50
2023-04-11T23:44:31.238Z,3.50
2023-04-11T23:46:59.947Z,3.00
2023-04-11T23:49:28.092Z,5.85
2023-04-11T23:51:56.103Z,5.63
2023-04-11T23:54:25.854Z,4.80
2023-04-11T23:56:55.611Z,6.70
2023-04-11T23:59:23.845Z,5.32
